Arkdale, Wisconsin
Current Conditions -  °F | °C
As of 7:13 PM on Friday 24 Oct 2014 (Local Time) from KVOK Reporting Station
Overcast Overcast  
Wind Chill: 59°   Ceiling: 1400
Heat Index: 59°   Visibility: 9mi
Dew Point: 59°   Wind: 3mph
Humidity: 100%   Direction: 220°SW
Pressure: 29.9"   Gusts: NA
Location:  44.03°N, 89.89°W
Report Text: KVOK 250013Z AUTO 22003KT 9SM OVC014 15/15 A2990 RMK AO2
Loading
Personal Weather Stations






























Interactive Weather Map
Tropical Storm Tracking
New forecast layout! Learn more

10-Day Weather Forecast

Advertisements
Track Severe Weather on mobile